createdAt,value
2023-04-26T00:02:00.803Z,6.64
2023-04-26T00:04:29.533Z,6.60
2023-04-26T00:06:57.171Z,6.63
2023-04-26T00:09:24.270Z,6.61
2023-04-26T00:11:51.479Z,6.61
2023-04-26T00:14:18.699Z,6.51
2023-04-26T00:16:45.754Z,6.55
2023-04-26T00:19:13.980Z,6.53
2023-04-26T00:21:41.130Z,6.56
2023-04-26T00:24:09.074Z,6.51
2023-04-26T00:26:36.292Z,6.49
2023-04-26T00:29:04.859Z,6.43
2023-04-26T00:31:32.046Z,6.38
2023-04-26T00:33:59.212Z,6.38
2023-04-26T00:36:26.484Z,6.40
2023-04-26T00:38:53.970Z,6.39
2023-04-26T00:41:22.163Z,6.42
2023-04-26T00:43:49.437Z,6.40
2023-04-26T00:46:16.556Z,6.41
2023-04-26T00:48:45.155Z,6.37
2023-04-26T00:51:13.243Z,6.37
2023-04-26T00:53:41.497Z,6.47
2023-04-26T00:56:10.549Z,6.46
2023-04-26T00:58:38.089Z,6.52
2023-04-26T01:01:05.543Z,6.56
2023-04-26T01:03:32.886Z,6.60
2023-04-26T01:06:01.217Z,6.63
2023-04-26T01:08:28.493Z,6.65
2023-04-26T01:10:59.261Z,6.65
2023-04-26T01:13:26.965Z,6.70
2023-04-26T01:15:56.025Z,6.72
2023-04-26T01:18:23.168Z,6.74
2023-04-26T01:20:52.214Z,6.77
2023-04-26T01:23:19.382Z,6.76
2023-04-26T01:25:46.721Z,6.81
2023-04-26T01:28:13.824Z,6.79
2023-04-26T01:30:41.110Z,6.79
2023-04-26T01:33:08.289Z,6.76
2023-04-26T01:35:35.725Z,6.84
2023-04-26T01:38:04.490Z,6.79
2023-04-26T01:40:31.541Z,6.74
2023-04-26T01:42:58.675Z,6.79
2023-04-26T01:45:30.974Z,6.83
2023-04-26T01:48:16.856Z,6.80
2023-04-26T01:50:43.998Z,6.78
2023-04-26T01:53:13.833Z,6.82
2023-04-26T01:55:41.888Z,6.76
2023-04-26T01:58:09.787Z,6.82
2023-04-26T02:00:37.664Z,6.82
2023-04-26T02:03:04.815Z,6.76
2023-04-26T02:05:31.982Z,6.74
2023-04-26T02:07:59.036Z,6.73
2023-04-26T02:10:26.178Z,6.70
2023-04-26T02:12:53.181Z,6.72
2023-04-26T02:15:20.607Z,6.67
2023-04-26T02:17:47.578Z,6.56
2023-04-26T02:20:14.914Z,6.52
2023-04-26T02:22:41.943Z,6.47
2023-04-26T02:25:09.160Z,6.41
2023-04-26T02:27:36.293Z,6.40
2023-04-26T02:30:04.134Z,6.37
2023-04-26T02:32:31.267Z,6.35
2023-04-26T02:34:58.627Z,6.32
2023-04-26T02:37:25.923Z,6.24
2023-04-26T02:39:53.248Z,6.24
2023-04-26T02:42:20.494Z,6.21
2023-04-26T02:44:47.686Z,6.15
2023-04-26T02:47:14.845Z,6.14
2023-04-26T02:49:42.150Z,6.08
2023-04-26T02:52:09.904Z,6.05
2023-04-26T02:54:37.943Z,5.97
2023-04-26T02:57:05.261Z,6.00
2023-04-26T02:59:32.667Z,5.95
2023-04-26T03:01:59.994Z,5.87
2023-04-26T03:04:27.879Z,5.81
2023-04-26T03:06:54.885Z,5.78
2023-04-26T03:09:22.425Z,5.73
2023-04-26T03:11:50.969Z,5.64
2023-04-26T03:14:18.206Z,5.67
2023-04-26T03:16:46.148Z,5.60
2023-04-26T03:19:13.240Z,5.60
2023-04-26T03:21:41.181Z,5.58
2023-04-26T03:24:08.359Z,5.53
2023-04-26T03:26:35.448Z,5.52
2023-04-26T03:29:03.366Z,5.49
2023-04-26T03:31:30.451Z,5.48
2023-04-26T03:33:57.557Z,5.47
2023-04-26T03:36:24.736Z,5.42
2023-04-26T03:38:52.074Z,5.36
2023-04-26T03:41:20.738Z,5.28
2023-04-26T03:43:49.064Z,5.37
2023-04-26T03:46:17.746Z,5.41
2023-04-26T03:48:48.518Z,5.41
2023-04-26T03:51:15.565Z,5.34
2023-04-26T03:53:42.645Z,5.31
2023-04-26T03:56:09.724Z,5.34
2023-04-26T03:58:37.290Z,5.35
2023-04-26T04:01:05.097Z,5.38
2023-04-26T04:03:32.496Z,5.35
2023-04-26T04:05:59.784Z,5.31
2023-04-26T04:08:26.922Z,5.29
2023-04-26T04:10:54.036Z,5.31
2023-04-26T04:13:21.139Z,5.33
2023-04-26T04:15:48.504Z,5.36
2023-04-26T04:18:15.767Z,5.32
2023-04-26T04:20:42.825Z,5.38
2023-04-26T04:23:10.253Z,5.43
2023-04-26T04:25:39.680Z,5.45
2023-04-26T04:28:09.437Z,5.42
2023-04-26T04:30:36.973Z,5.49
2023-04-26T04:33:05.581Z,5.48
2023-04-26T04:35:34.309Z,5.47
2023-04-26T04:38:04.561Z,5.49
2023-04-26T04:40:32.566Z,5.51
2023-04-26T04:43:01.165Z,5.49
2023-04-26T04:45:29.852Z,5.51
2023-04-26T04:47:58.711Z,5.62
2023-04-26T04:50:26.874Z,5.67
2023-04-26T04:52:55.959Z,5.71
2023-04-26T04:55:23.038Z,5.67
2023-04-26T04:57:50.156Z,5.72
2023-04-26T05:00:17.697Z,5.78
2023-04-26T05:02:52.223Z,5.84
2023-04-26T05:05:20.136Z,5.90
2023-04-26T05:07:47.496Z,5.90
2023-04-26T05:10:15.867Z,5.90
2023-04-26T05:12:42.929Z,5.89
2023-04-26T05:15:10.750Z,5.83
2023-04-26T05:17:38.040Z,5.85
2023-04-26T05:20:17.364Z,5.88
2023-04-26T05:22:44.646Z,5.97
2023-04-26T05:25:13.735Z,5.97
2023-04-26T05:27:41.572Z,5.98
2023-04-26T05:30:27.567Z,6.03
2023-04-26T05:33:04.795Z,6.05
2023-04-26T05:35:47.177Z,5.95
2023-04-26T05:38:15.352Z,5.93
2023-04-26T05:40:42.449Z,5.91
2023-04-26T05:43:10.847Z,6.03
2023-04-26T05:45:39.363Z,6.06
2023-04-26T05:48:07.095Z,6.06
2023-04-26T05:50:34.155Z,6.14
2023-04-26T05:53:01.580Z,6.25
2023-04-26T05:55:29.682Z,6.24
2023-04-26T05:57:57.137Z,6.25
2023-04-26T06:00:24.707Z,6.25
2023-04-26T06:02:52.230Z,6.35
2023-04-26T06:05:19.623Z,6.43
2023-04-26T06:07:47.653Z,6.27
2023-04-26T06:10:14.825Z,6.38
2023-04-26T06:12:43.288Z,6.48
2023-04-26T06:15:11.608Z,6.62
2023-04-26T06:17:41.307Z,6.68
2023-04-26T06:20:10.505Z,6.79
2023-04-26T06:22:38.363Z,6.92
2023-04-26T06:25:06.966Z,7.12
2023-04-26T06:27:36.299Z,7.24
2023-04-26T06:30:03.889Z,7.28
2023-04-26T06:32:32.354Z,7.43
2023-04-26T06:34:59.651Z,7.58
2023-04-26T06:37:26.827Z,7.52
2023-04-26T06:39:54.897Z,7.50
2023-04-26T06:42:22.626Z,7.49
2023-04-26T06:45:06.847Z,7.46
2023-04-26T06:47:36.764Z,7.52
2023-04-26T06:50:05.138Z,7.49
2023-04-26T06:52:32.322Z,7.34
2023-04-26T06:55:03.544Z,7.48
2023-04-26T06:57:31.013Z,7.50
2023-04-26T06:59:58.434Z,7.64
2023-04-26T07:02:25.825Z,7.75
2023-04-26T07:04:53.378Z,7.86
2023-04-26T07:07:20.980Z,8.04
2023-04-26T07:09:48.050Z,8.12
2023-04-26T07:12:15.133Z,8.30
2023-04-26T07:14:43.557Z,8.39
2023-04-26T07:17:11.252Z,8.53
2023-04-26T07:19:38.876Z,8.69
2023-04-26T07:22:06.302Z,8.83
2023-04-26T07:24:33.638Z,8.80
2023-04-26T07:27:02.275Z,8.84
2023-04-26T07:29:29.444Z,8.98
2023-04-26T07:31:57.463Z,9.09
2023-04-26T07:34:24.949Z,9.10
2023-04-26T07:36:52.083Z,9.17
2023-04-26T07:39:19.310Z,9.33
2023-04-26T07:41:46.480Z,9.36
2023-04-26T07:44:13.551Z,9.29
2023-04-26T07:46:40.607Z,9.36
2023-04-26T07:49:07.724Z,9.63
2023-04-26T07:51:37.374Z,9.48
2023-04-26T07:54:04.527Z,9.55
2023-04-26T07:56:31.706Z,9.42
2023-04-26T07:58:58.989Z,9.05
2023-04-26T08:01:26.303Z,9.17
2023-04-26T08:03:54.954Z,9.33
2023-04-26T08:06:22.838Z,9.14
2023-04-26T08:08:51.114Z,8.96
2023-04-26T08:11:18.540Z,9.04
2023-04-26T08:13:45.924Z,8.99
2023-04-26T08:16:13.220Z,8.75
2023-04-26T08:18:40.496Z,9.06
2023-04-26T08:21:07.917Z,9.15
2023-04-26T08:23:36.721Z,9.00
2023-04-26T08:26:04.337Z,9.02
2023-04-26T08:28:31.692Z,9.42
2023-04-26T08:30:58.933Z,9.62
2023-04-26T08:33:26.359Z,9.48
2023-04-26T08:35:53.560Z,9.59
2023-04-26T08:38:22.925Z,9.79
2023-04-26T08:40:51.968Z,10.12
2023-04-26T08:43:19.077Z,10.26
2023-04-26T08:45:47.362Z,10.45
2023-04-26T08:48:18.410Z,10.58
2023-04-26T08:50:48.912Z,10.64
2023-04-26T08:53:21.742Z,10.92
2023-04-26T08:55:50.188Z,11.06
2023-04-26T08:58:21.786Z,10.72
2023-04-26T09:00:50.617Z,10.29
2023-04-26T09:03:18.285Z,9.84
2023-04-26T09:05:46.102Z,9.67
2023-04-26T09:08:17.711Z,9.68
2023-04-26T09:10:45.212Z,9.53
2023-04-26T09:13:12.663Z,9.37
2023-04-26T09:15:40.399Z,9.39
2023-04-26T09:18:22.050Z,9.52
2023-04-26T09:21:09.539Z,9.65
2023-04-26T09:23:36.874Z,9.91
2023-04-26T09:26:21.122Z,9.96
2023-04-26T09:28:48.779Z,9.84
2023-04-26T09:31:37.635Z,9.71
2023-04-26T09:34:05.124Z,9.59
2023-04-26T09:36:32.508Z,9.68
2023-04-26T09:39:01.222Z,10.18
2023-04-26T09:41:47.441Z,10.28
2023-04-26T09:44:24.801Z,10.62
2023-04-26T09:47:06.886Z,11.08
2023-04-26T09:49:44.861Z,11.40
2023-04-26T09:52:12.046Z,11.42
2023-04-26T09:54:44.961Z,11.25
2023-04-26T09:57:14.043Z,11.13
2023-04-26T09:59:46.345Z,11.05
2023-04-26T10:02:17.418Z,11.16
2023-04-26T10:04:47.260Z,11.17
2023-04-26T10:07:16.270Z,11.21
2023-04-26T10:09:44.100Z,11.21
2023-04-26T10:12:12.923Z,11.16
2023-04-26T10:14:40.404Z,10.92
2023-04-26T10:17:07.795Z,10.71
2023-04-26T10:19:37.161Z,10.93
2023-04-26T10:22:08.549Z,11.00
2023-04-26T10:24:37.185Z,10.86
2023-04-26T10:27:04.933Z,10.67
2023-04-26T10:29:54.861Z,10.45
2023-04-26T10:32:23.201Z,10.37
2023-04-26T10:35:13.539Z,10.32
2023-04-26T10:38:01.215Z,10.01
2023-04-26T10:40:38.962Z,9.93
2023-04-26T10:43:19.748Z,9.82
2023-04-26T10:45:48.181Z,9.84
2023-04-26T10:48:18.053Z,10.24
2023-04-26T10:51:08.025Z,10.50
2023-04-26T10:53:35.105Z,10.44
2023-04-26T10:56:02.325Z,10.29
2023-04-26T10:58:31.833Z,10.15
2023-04-26T11:01:19.277Z,9.97
2023-04-26T11:03:59.331Z,10.39
2023-04-26T11:06:27.140Z,10.93
2023-04-26T11:08:55.263Z,11.41
2023-04-26T11:11:27.269Z,11.57
2023-04-26T11:13:54.466Z,11.47
2023-04-26T11:16:21.820Z,11.15
2023-04-26T11:18:49.135Z,10.75
2023-04-26T11:21:19.121Z,10.46
2023-04-26T11:23:56.103Z,10.24
2023-04-26T11:26:25.067Z,10.14
2023-04-26T11:28:52.479Z,10.08
2023-04-26T11:31:20.149Z,10.18
2023-04-26T11:33:49.202Z,10.43
2023-04-26T11:36:17.839Z,10.95
2023-04-26T11:38:45.015Z,11.39
2023-04-26T11:41:12.136Z,11.50
2023-04-26T11:43:40.054Z,11.29
2023-04-26T11:46:10.156Z,11.25
2023-04-26T11:48:38.791Z,11.32
2023-04-26T11:51:08.462Z,11.32
2023-04-26T11:53:45.780Z,11.16
2023-04-26T11:56:23.248Z,11.14
2023-04-26T11:58:52.177Z,11.31
2023-04-26T12:01:23.918Z,11.60
2023-04-26T12:03:53.153Z,11.66
2023-04-26T12:06:25.987Z,11.45
2023-04-26T12:08:53.434Z,11.23
2023-04-26T12:11:21.365Z,11.30
2023-04-26T12:13:48.820Z,11.35
2023-04-26T12:16:25.607Z,11.14
2023-04-26T12:18:55.501Z,10.87
2023-04-26T12:21:24.646Z,10.70
2023-04-26T12:23:52.055Z,10.63
2023-04-26T12:26:20.636Z,10.75
2023-04-26T12:28:47.867Z,10.92
2023-04-26T12:31:15.081Z,10.90
2023-04-26T12:33:42.505Z,10.84
2023-04-26T12:36:11.608Z,10.78
2023-04-26T12:38:39.785Z,10.87
2023-04-26T12:41:07.352Z,11.15
2023-04-26T12:43:34.741Z,11.27
2023-04-26T12:46:01.982Z,11.21
2023-04-26T12:48:29.241Z,11.07
2023-04-26T12:50:56.938Z,10.88
2023-04-26T12:53:24.053Z,10.79
2023-04-26T12:55:51.148Z,10.71
2023-04-26T12:58:18.306Z,10.70
2023-04-26T13:00:45.610Z,10.65
2023-04-26T13:03:14.938Z,10.71
2023-04-26T13:05:42.315Z,10.80
2023-04-26T13:08:09.492Z,10.89
2023-04-26T13:10:36.626Z,10.84
2023-04-26T13:13:03.836Z,10.75
2023-04-26T13:15:31.037Z,10.77
2023-04-26T13:17:58.265Z,10.92
2023-04-26T13:20:26.741Z,11.17
2023-04-26T13:22:55.767Z,11.39
2023-04-26T13:25:23.525Z,11.57
2023-04-26T13:27:53.820Z,11.63
2023-04-26T13:30:20.951Z,11.62
2023-04-26T13:32:48.257Z,11.48
2023-04-26T13:35:15.403Z,11.19
2023-04-26T13:37:42.863Z,10.97
2023-04-26T13:40:11.493Z,10.91
2023-04-26T13:42:39.695Z,10.82
2023-04-26T13:45:10.318Z,10.80
2023-04-26T13:47:37.432Z,10.63
2023-04-26T13:50:04.919Z,10.50
2023-04-26T13:52:32.046Z,10.39
2023-04-26T13:54:59.227Z,10.27
2023-04-26T13:57:26.323Z,10.21
2023-04-26T13:59:53.490Z,10.17
2023-04-26T14:02:21.639Z,10.18
2023-04-26T14:04:49.294Z,10.22
2023-04-26T14:07:17.253Z,10.34
2023-04-26T14:09:44.303Z,10.44
2023-04-26T14:12:11.643Z,10.47
2023-04-26T14:14:38.740Z,10.37
2023-04-26T14:17:05.784Z,10.39
2023-04-26T14:19:32.819Z,10.41
2023-04-26T14:21:59.936Z,10.47
2023-04-26T14:24:26.984Z,10.42
2023-04-26T14:26:54.149Z,10.29
2023-04-26T14:29:21.414Z,10.29
2023-04-26T14:31:48.551Z,10.36
2023-04-26T14:34:15.780Z,10.42
2023-04-26T14:36:42.976Z,10.43
2023-04-26T14:39:10.044Z,10.42
2023-04-26T14:41:37.637Z,10.42
2023-04-26T14:44:04.863Z,10.43
2023-04-26T14:46:31.998Z,10.41
2023-04-26T14:48:59.340Z,10.35
2023-04-26T14:51:27.592Z,10.35
2023-04-26T14:53:54.770Z,10.36
2023-04-26T14:56:22.438Z,10.39
2023-04-26T14:58:49.772Z,10.57
2023-04-26T15:01:17.488Z,10.72
2023-04-26T15:03:45.009Z,10.77
2023-04-26T15:06:12.329Z,10.74
2023-04-26T15:08:39.631Z,10.68
2023-04-26T15:11:06.773Z,10.75
2023-04-26T15:13:33.957Z,10.82
2023-04-26T15:16:07.569Z,10.95
2023-04-26T15:18:35.239Z,11.02
2023-04-26T15:21:02.423Z,11.04
2023-04-26T15:23:29.500Z,11.00
2023-04-26T15:26:02.060Z,10.91
2023-04-26T15:28:29.446Z,10.80
2023-04-26T15:31:08.293Z,10.64
2023-04-26T15:33:36.526Z,10.56
2023-04-26T15:36:03.921Z,10.56
2023-04-26T15:38:30.970Z,10.60
2023-04-26T15:40:58.111Z,10.61
2023-04-26T15:43:25.546Z,10.63
2023-04-26T15:45:53.221Z,10.60
2023-04-26T15:48:20.367Z,10.57
2023-04-26T15:50:47.666Z,10.57
2023-04-26T15:53:14.808Z,10.63
2023-04-26T15:55:42.070Z,10.65
2023-04-26T15:58:09.148Z,10.61
2023-04-26T16:00:36.740Z,10.54
2023-04-26T16:03:04.199Z,10.48
2023-04-26T16:05:32.002Z,10.37
2023-04-26T16:08:03.968Z,10.36
2023-04-26T16:10:31.188Z,10.31
2023-04-26T16:12:59.084Z,10.25
2023-04-26T16:15:26.573Z,10.24
2023-04-26T16:17:53.708Z,10.15
2023-04-26T16:20:21.530Z,10.17
2023-04-26T16:22:50.052Z,10.12
2023-04-26T16:25:17.436Z,10.12
2023-04-26T16:27:44.828Z,10.10
2023-04-26T16:30:12.444Z,10.10
2023-04-26T16:32:39.806Z,10.05
2023-04-26T16:35:09.073Z,10.01
2023-04-26T16:37:39.404Z,10.00
2023-04-26T16:40:08.108Z,10.01
2023-04-26T16:42:35.382Z,10.02
2023-04-26T16:45:02.482Z,10.01
2023-04-26T16:47:29.829Z,9.98
2023-04-26T16:49:57.487Z,9.93
2023-04-26T16:52:24.534Z,9.90
2023-04-26T16:54:51.654Z,9.89
2023-04-26T16:57:19.121Z,9.89
2023-04-26T16:59:46.559Z,9.91
2023-04-26T17:02:14.180Z,9.90
2023-04-26T17:04:42.204Z,9.86
2023-04-26T17:07:09.737Z,9.84
2023-04-26T17:09:38.521Z,9.84
2023-04-26T17:12:07.682Z,9.84
2023-04-26T17:14:35.089Z,9.86
2023-04-26T17:17:02.263Z,9.85
2023-04-26T17:19:29.664Z,9.86
2023-04-26T17:21:56.866Z,9.85
2023-04-26T17:24:24.030Z,9.82
2023-04-26T17:26:51.853Z,9.81
2023-04-26T17:29:18.993Z,9.74
2023-04-26T17:31:46.312Z,9.63
2023-04-26T17:34:13.405Z,9.62
2023-04-26T17:36:40.632Z,9.57
2023-04-26T17:39:08.281Z,9.51
2023-04-26T17:41:35.361Z,9.45
2023-04-26T17:44:02.446Z,9.43
2023-04-26T17:46:29.539Z,9.35
2023-04-26T17:48:56.736Z,9.40
2023-04-26T17:51:23.985Z,9.42
2023-04-26T17:53:51.101Z,9.39
2023-04-26T17:56:19.017Z,9.44
2023-04-26T17:58:46.097Z,9.42
2023-04-26T18:01:13.807Z,9.39
2023-04-26T18:03:41.429Z,9.37
2023-04-26T18:06:08.781Z,9.36
2023-04-26T18:08:36.815Z,9.33
2023-04-26T18:11:04.042Z,9.36
2023-04-26T18:13:31.182Z,9.32
2023-04-26T18:15:58.492Z,9.29
2023-04-26T18:18:27.767Z,9.25
2023-04-26T18:20:55.291Z,9.20
2023-04-26T18:23:22.363Z,9.14
2023-04-26T18:25:50.722Z,9.03
2023-04-26T18:28:17.920Z,9.04
2023-04-26T18:30:45.036Z,8.97
2023-04-26T18:33:12.352Z,8.91
2023-04-26T18:35:39.580Z,8.91
2023-04-26T18:38:06.840Z,8.88
2023-04-26T18:40:34.176Z,8.84
2023-04-26T18:43:01.352Z,8.81
2023-04-26T18:45:28.420Z,8.72
2023-04-26T18:47:55.664Z,8.69
2023-04-26T18:50:22.802Z,8.63
2023-04-26T18:52:50.011Z,8.57
2023-04-26T18:55:17.497Z,8.54
2023-04-26T18:57:44.704Z,8.50
2023-04-26T19:00:12.502Z,8.42
2023-04-26T19:02:42.849Z,8.32
2023-04-26T19:05:10.624Z,8.27
2023-04-26T19:07:37.933Z,8.27
2023-04-26T19:10:07.181Z,8.28
2023-04-26T19:12:34.329Z,8.25
2023-04-26T19:15:02.154Z,8.18
2023-04-26T19:17:29.774Z,8.16
2023-04-26T19:19:57.030Z,8.19
2023-04-26T19:22:24.230Z,8.14
2023-04-26T19:24:51.423Z,8.10
2023-04-26T19:27:18.628Z,8.02
2023-04-26T19:29:46.089Z,8.03
2023-04-26T19:32:14.575Z,8.01
2023-04-26T19:34:41.817Z,7.97
2023-04-26T19:37:08.945Z,7.93
2023-04-26T19:39:36.109Z,7.90
2023-04-26T19:42:04.935Z,7.83
2023-04-26T19:44:32.275Z,7.85
2023-04-26T19:46:59.631Z,7.83
2023-04-26T19:49:28.909Z,7.77
2023-04-26T19:51:56.332Z,7.77
2023-04-26T19:54:23.814Z,7.80
2023-04-26T19:56:51.266Z,7.77
2023-04-26T19:59:18.606Z,7.77
2023-04-26T20:01:45.761Z,7.71
2023-04-26T20:04:12.961Z,7.72
2023-04-26T20:06:40.184Z,7.69
2023-04-26T20:09:07.539Z,7.64
2023-04-26T20:11:34.890Z,7.62
2023-04-26T20:14:02.115Z,7.62
2023-04-26T20:16:29.330Z,7.59
2023-04-26T20:18:57.134Z,7.57
2023-04-26T20:21:24.238Z,7.52
2023-04-26T20:23:51.351Z,7.51
2023-04-26T20:26:18.726Z,7.44
2023-04-26T20:28:46.195Z,7.41
2023-04-26T20:31:13.340Z,7.43
2023-04-26T20:33:40.374Z,7.41
2023-04-26T20:36:07.542Z,7.38
2023-04-26T20:38:34.852Z,7.35
2023-04-26T20:41:01.932Z,7.31
2023-04-26T20:43:29.288Z,7.30
2023-04-26T20:45:56.330Z,7.24
2023-04-26T20:48:24.293Z,7.22
2023-04-26T20:50:54.363Z,7.22
2023-04-26T20:53:21.492Z,7.20
2023-04-26T20:55:48.614Z,7.20
2023-04-26T20:58:15.798Z,7.16
2023-04-26T21:00:42.916Z,7.14
2023-04-26T21:03:10.126Z,7.08
2023-04-26T21:05:37.374Z,7.06
2023-04-26T21:08:04.532Z,7.06
2023-04-26T21:10:31.698Z,7.03
2023-04-26T21:12:58.789Z,7.01
2023-04-26T21:15:25.940Z,6.97
2023-04-26T21:17:53.130Z,6.91
2023-04-26T21:20:20.524Z,6.91
2023-04-26T21:22:47.817Z,6.90
2023-04-26T21:25:17.219Z,6.84
2023-04-26T21:27:44.417Z,6.81
2023-04-26T21:30:12.232Z,6.82
2023-04-26T21:32:42.216Z,6.79
2023-04-26T21:35:11.128Z,6.77
2023-04-26T21:37:38.307Z,6.72
2023-04-26T21:40:06.814Z,6.70
2023-04-26T21:42:34.006Z,6.69
2023-04-26T21:45:01.589Z,6.68
2023-04-26T21:47:28.822Z,6.66
2023-04-26T21:49:56.136Z,6.65
2023-04-26T21:52:23.282Z,6.65
2023-04-26T21:54:52.708Z,6.66
2023-04-26T21:57:24.222Z,6.64
2023-04-26T21:59:51.697Z,6.59
2023-04-26T22:02:19.180Z,6.62
2023-04-26T22:04:46.909Z,6.59
2023-04-26T22:07:13.970Z,6.54
2023-04-26T22:09:41.240Z,6.53
2023-04-26T22:12:08.424Z,6.55
2023-04-26T22:14:35.607Z,6.56
2023-04-26T22:17:02.736Z,6.51
2023-04-26T22:19:29.834Z,6.50
2023-04-26T22:21:57.114Z,6.50
2023-04-26T22:24:24.307Z,6.50
2023-04-26T22:26:51.577Z,6.46
2023-04-26T22:29:18.638Z,6.41
2023-04-26T22:31:45.821Z,6.43
2023-04-26T22:34:12.898Z,6.40
2023-04-26T22:36:40.149Z,6.37
2023-04-26T22:39:07.263Z,6.36
2023-04-26T22:41:34.423Z,6.39
2023-04-26T22:44:01.491Z,6.37
2023-04-26T22:46:28.650Z,6.36
2023-04-26T22:48:55.809Z,6.34
2023-04-26T22:51:23.027Z,6.32
2023-04-26T22:53:50.067Z,6.26
2023-04-26T22:56:17.218Z,6.28
2023-04-26T22:58:44.281Z,6.26
2023-04-26T23:01:11.553Z,6.25
2023-04-26T23:03:38.768Z,6.22
2023-04-26T23:06:06.539Z,6.18
2023-04-26T23:08:33.847Z,6.21
2023-04-26T23:11:01.051Z,6.20
2023-04-26T23:13:29.774Z,6.19
2023-04-26T23:15:57.273Z,6.19
2023-04-26T23:18:26.830Z,6.20
2023-04-26T23:20:53.924Z,6.21
2023-04-26T23:23:21.090Z,6.20
2023-04-26T23:25:48.150Z,6.18
2023-04-26T23:28:15.425Z,6.17
2023-04-26T23:30:43.269Z,6.15
2023-04-26T23:33:10.445Z,6.10
2023-04-26T23:35:41.960Z,6.06
2023-04-26T23:38:09.286Z,6.08
2023-04-26T23:40:37.398Z,6.07
2023-04-26T23:43:06.367Z,6.09
2023-04-26T23:45:33.561Z,6.13
2023-04-26T23:48:01.044Z,6.07
2023-04-26T23:50:28.425Z,6.04
2023-04-26T23:52:55.760Z,5.98
2023-04-26T23:55:24.032Z,5.96
2023-04-26T23:57:51.179Z,5.92
